Airfield :
LOGIN :

Register | Disclaimer

   EN    FR    IT 

 










Legend :    VFR   Marginal VFR   IFR   Intensive IFR   Very Intensive IFR
Visi :
Ceiling :
>= 8 km
>= 3000ft
5 to 8 km
1000 to 3000 ft
1500m to 5 km
500 to 1000 ft
800 to 1500m
200 to 500 ft
< 800m
< 200 ft
Symbols :   Thunderstorms  Fog  Heavy snow  Heavy precipitations  Wind > 20 kt
SIGMETs :     Misc.  Thunderstorms  Icing  Turbulence  Mountain Waves  Volcanic Ashes







- Airport Elevation : 202 ft
- IATA code : LGW
- Download approach charts


EGKK - London Gatwick

CURRENT METAR :
  • 262320Z 05016KT 9999 BKN014 15/12 Q1028

EXPIRED METARs :
  • 262250Z 05015G26KT 9999 BKN013 15/12 Q1028
  • 262220Z 05015KT 9999 BKN014 15/12 Q1028
  • 262150Z 05017KT 9999 BKN014 15/13 Q1028
  • 262120Z 05015KT 9999 BKN014 16/13 Q1028
  • 262050Z 05015KT 9999 BKN014 16/13 Q1028

TAF TAF EGKK
Valid from the 27 at 00:00 until the 28 at 06:00 UTC


262305Z 2700/2806 05012KT 9999 BKN012
TEMPO 2700/2703 05015G25KT
PROB30 2700/2707 8000
BECMG 2707/2710 SCT016
PROB30
TEMPO 2713/2720 06015G25KT
PROB40
TEMPO 2721/2806 BKN012
No reported NOTAMs for that airfield.



MET'MAP, your aeronautical weather chart ! - Copyright ORBIFLY December 2007 - Disclaimer

ORBIFLY MET'MAP TEAM :

Programming & Development : Alexandra Zaïnal
Concept & Development : Baudouin d'Aumeries
Co-Development & Prog : Marc-Olivier Méhu
Technical & hardware support : Manuel Goepfert

Contact : metmap@orbifly.com




SOURCES & CREDITS :

   NOAA